Time;durP1;ratioP1;P1;durP2;ratioP2;P2;SDS_P1;SDS_P2;PMS_P1;PMS_P2;Temp;Humidity;BMP_temperature;BMP_pressure;BME280_temperature;BME280_humidity;BME280_pressure;Samples;Min_cycle;Max_cycle;Signal;HPM_P1;HPM_P2
2022/10/14 00:01:20;;;;;;;19.60;11.23;;;11.60;99.90;;;;;;5026616;28;20053;-63
2022/10/14 00:03:46;;;;;;;13.63;10.20;;;11.50;99.90;;;;;;5014725;28;20565;-62
2022/10/14 00:06:23;;;;;;;16.67;11.38;;;11.50;99.90;;;;;;5010338;28;20534;-63
2022/10/14 00:08:49;;;;;;;25.40;15.40;;;11.50;99.90;;;;;;5010882;28;20504;-63
2022/10/14 00:11:22;;;;;;;20.67;14.27;;;11.40;99.90;;;;;;5014547;28;20038;-62
2022/10/14 00:13:48;;;;;;;18.58;12.85;;;11.40;99.90;;;;;;5034688;28;20113;-63
2022/10/14 00:16:23;;;;;;;16.73;12.73;;;11.40;99.90;;;;;;5024321;28;20032;-63
2022/10/14 00:18:48;;;;;;;16.90;11.38;;;11.40;99.90;;;;;;5015662;28;20033;-63
2022/10/14 00:21:14;;;;;;;19.35;12.45;;;11.50;99.90;;;;;;5014279;28;20018;-63
2022/10/14 00:23:40;;;;;;;18.58;11.88;;;11.50;99.90;;;;;;5024171;28;20497;-63
2022/10/14 00:26:05;;;;;;;15.05;10.93;;;11.60;99.90;;;;;;5024323;28;20107;-63
2022/10/14 00:28:31;;;;;;;18.30;10.93;;;11.60;99.90;;;;;;5013170;28;20037;-63
2022/10/14 00:30:59;;;;;;;16.58;11.43;;;11.60;99.90;;;;;;5009323;28;20478;-63
2022/10/14 00:33:26;;;;;;;17.67;11.80;;;11.60;99.90;;;;;;5015648;28;20038;-63
2022/10/14 00:35:56;;;;;;;18.83;11.50;;;11.70;99.90;;;;;;5013023;28;20030;-63
2022/10/14 00:38:22;;;;;;;19.02;12.48;;;11.70;99.90;;;;;;5016070;28;20441;-63
2022/10/14 00:40:48;;;;;;;20.08;12.38;;;11.70;99.90;;;;;;5024008;28;20097;-63
2022/10/14 00:43:13;;;;;;;17.23;11.60;;;11.70;99.90;;;;;;5010458;28;20049;-63
2022/10/14 00:45:39;;;;;;;17.63;11.95;;;11.70;99.90;;;;;;5010979;28;20025;-63
2022/10/14 00:48:06;;;;;;;18.80;12.02;;;11.80;99.90;;;;;;5014375;28;20021;-62
2022/10/14 00:50:32;;;;;;;20.05;11.68;;;11.80;99.90;;;;;;5009930;28;20033;-62
2022/10/14 00:52:58;;;;;;;18.25;11.40;;;11.80;99.90;;;;;;5036534;28;20036;-62
2022/10/14 00:55:25;;;;;;;19.05;11.55;;;11.80;99.90;;;;;;5011660;28;20097;-63
2022/10/14 00:57:50;;;;;;;20.70;12.25;;;11.80;99.90;;;;;;5013691;28;20037;-63
2022/10/14 01:00:18;;;;;;;21.27;13.18;;;11.80;99.90;;;;;;5014526;28;20093;-63
2022/10/14 01:02:44;;;;;;;19.73;12.43;;;11.80;99.90;;;;;;5024134;28;20040;-62
2022/10/14 01:05:12;;;;;;;19.98;12.32;;;11.90;99.90;;;;;;5015353;28;20056;-62
2022/10/14 01:07:55;;;;;;;21.45;13.60;;;11.90;99.90;;;;;;5011467;28;20029;-63
2022/10/14 01:10:38;;;;;;;21.08;13.10;;;11.90;99.90;;;;;;5017111;28;20107;-63
2022/10/14 01:13:14;;;;;;;18.50;11.65;;;11.90;99.90;;;;;;5016237;28;20496;-63
2022/10/14 01:15:39;;;;;;;21.23;12.77;;;11.90;99.90;;;;;;5018738;28;20032;-63
2022/10/14 01:18:19;;;;;;;20.73;11.82;;;11.90;99.90;;;;;;5026614;28;20033;-63
2022/10/14 01:20:48;;;;;;;;;;;11.90;99.90;;;;;;5032979;28;20104;-63
2022/10/14 01:23:55;;;;;;;17.45;11.02;;;11.90;99.90;;;;;;5017830;28;19909;-63
2022/10/14 01:26:32;;;;;;;20.08;12.55;;;11.90;99.90;;;;;;5021317;28;20096;-63
2022/10/14 01:29:08;;;;;;;22.30;13.18;;;11.90;99.90;;;;;;5015467;28;20104;-63
2022/10/14 01:31:37;;;;;;;22.48;14.23;;;11.90;99.90;;;;;;5013965;28;20030;-63
2022/10/14 01:34:08;;;;;;;23.35;15.70;;;11.90;99.90;;;;;;5016036;28;20048;-63
2022/10/14 01:36:44;;;;;;;26.13;16.75;;;11.90;99.90;;;;;;5015936;28;20018;-63
2022/10/14 01:39:18;;;;;;;23.40;15.48;;;11.90;99.90;;;;;;5019374;28;20026;-63
2022/10/14 01:42:07;;;;;;;24.88;16.58;;;11.90;99.90;;;;;;5038368;28;20041;-62
2022/10/14 01:44:37;;;;;;;38.13;24.55;;;12.00;99.90;;;;;;5009932;28;20105;-63
2022/10/14 01:47:04;;;;;;;47.30;30.98;;;11.90;99.90;;;;;;5014738;28;20041;-62
2022/10/14 01:49:33;;;;;;;42.95;27.88;;;11.90;99.90;;;;;;5014510;28;20025;-63
2022/10/14 01:52:05;;;;;;;47.10;30.95;;;11.90;99.90;;;;;;5018828;28;20026;-63
2022/10/14 01:54:36;;;;;;;44.55;29.30;;;11.90;99.90;;;;;;5030626;28;20057;-62
2022/10/14 01:57:06;;;;;;;37.60;25.58;;;11.90;99.90;;;;;;5014562;28;20104;-63
2022/10/14 01:59:34;;;;;;;45.10;28.50;;;11.90;99.90;;;;;;5013261;28;20104;-62
2022/10/14 02:01:59;;;;;;;48.95;32.35;;;11.90;99.90;;;;;;5015479;28;20108;-63
2022/10/14 02:04:25;;;;;;;39.75;25.98;;;11.90;99.90;;;;;;5016330;28;20036;-63
2022/10/14 02:07:10;;;;;;;40.08;24.92;;;12.00;99.90;;;;;;5016247;28;20361;-63
2022/10/14 02:09:58;;;;;;;30.73;21.55;;;12.00;99.90;;;;;;5014674;28;20456;-63
2022/10/14 02:12:59;;;;;;;40.85;25.67;;;12.00;99.90;;;;;;5018696;28;20017;-63
2022/10/14 02:15:39;;;;;;;43.78;29.48;;;12.00;99.90;;;;;;5011514;28;20025;-62
2022/10/14 02:18:13;;;;;;;;;;;12.00;99.90;;;;;;5018816;28;20025;-63
2022/10/14 02:20:55;;;;;;;47.38;30.20;;;11.90;99.90;;;;;;5015479;28;20025;-62
2022/10/14 02:23:26;;;;;;;51.33;32.25;;;11.90;99.90;;;;;;5016967;28;20052;-63
2022/10/14 02:25:53;;;;;;;41.75;28.08;;;11.90;99.90;;;;;;5025215;28;20037;-62
2022/10/14 02:28:22;;;;;;;40.60;26.38;;;12.00;99.90;;;;;;5014731;28;20033;-62
2022/10/14 02:30:57;;;;;;;34.92;23.98;;;12.10;99.90;;;;;;5018696;28;20028;-63
2022/10/14 02:33:29;;;;;;;32.15;21.33;;;12.10;99.90;;;;;;5013529;28;20552;-63
2022/10/14 02:35:55;;;;;;;30.52;20.52;;;12.20;99.90;;;;;;5037191;28;20033;-63
2022/10/14 02:38:23;;;;;;;29.35;19.83;;;12.20;99.90;;;;;;5014824;28;20040;-63
2022/10/14 02:40:49;;;;;;;27.38;19.52;;;12.20;99.90;;;;;;5014528;28;20493;-62
2022/10/14 02:43:15;;;;;;;32.17;21.48;;;12.30;99.90;;;;;;5011041;28;20053;-63
2022/10/14 02:45:42;;;;;;;34.47;21.75;;;12.30;99.90;;;;;;5014470;28;20018;-63
2022/10/14 02:48:10;;;;;;;33.10;21.80;;;12.30;99.90;;;;;;5011963;28;20036;-63
2022/10/14 02:50:35;;;;;;;33.85;20.35;;;12.30;99.90;;;;;;5015299;28;20522;-63
2022/10/14 02:53:01;;;;;;;47.90;30.77;;;12.40;99.90;;;;;;5017718;28;20029;-63
2022/10/14 02:55:27;;;;;;;52.42;33.20;;;12.30;99.90;;;;;;5028734;28;20062;-63
2022/10/14 02:57:52;;;;;;;56.22;35.70;;;12.30;99.90;;;;;;5011973;28;20034;-63
2022/10/14 03:00:19;;;;;;;56.75;34.53;;;12.30;99.90;;;;;;5018684;28;20044;-63
2022/10/14 03:02:44;;;;;;;49.15;31.33;;;12.30;99.90;;;;;;5034745;28;20059;-63
2022/10/14 03:05:10;;;;;;;40.20;27.35;;;12.30;99.90;;;;;;5015720;28;20049;-63
2022/10/14 03:07:35;;;;;;;31.85;21.85;;;12.30;99.90;;;;;;5012977;28;20034;-63
2022/10/14 03:10:01;;;;;;;52.83;34.22;;;12.30;99.90;;;;;;5013228;28;20099;-63
2022/10/14 03:12:27;;;;;;;58.10;35.13;;;12.30;99.90;;;;;;5013933;28;20444;-62
2022/10/14 03:14:53;;;;;;;58.83;36.90;;;12.30;99.90;;;;;;5015972;28;20072;-63
2022/10/14 03:17:19;;;;;;;57.22;36.58;;;12.30;99.90;;;;;;5012310;28;20409;-63
2022/10/14 03:19:44;;;;;;;55.90;37.15;;;12.30;99.90;;;;;;5027428;28;20021;-63
2022/10/14 03:22:10;;;;;;;60.65;38.80;;;12.30;99.90;;;;;;5012367;28;20030;-63
2022/10/14 03:24:35;;;;;;;57.70;35.80;;;12.40;99.90;;;;;;5025372;28;20064;-63
2022/10/14 03:27:01;;;;;;;55.65;37.67;;;12.40;99.90;;;;;;5013593;28;20398;-62
2022/10/14 03:29:26;;;;;;;52.42;35.35;;;12.40;99.90;;;;;;5013793;28;20050;-63
2022/10/14 03:31:52;;;;;;;50.35;34.17;;;12.40;99.90;;;;;;5017238;28;20104;-63
2022/10/14 03:34:17;;;;;;;52.13;34.22;;;12.40;99.90;;;;;;5024096;28;20056;-63
2022/10/14 03:36:43;;;;;;;54.35;35.10;;;12.40;99.90;;;;;;5014320;28;20421;-62
2022/10/14 03:39:10;;;;;;;52.45;34.60;;;12.40;99.90;;;;;;5013485;28;20033;-63
2022/10/14 03:41:36;;;;;;;52.08;34.92;;;12.50;99.90;;;;;;5035855;28;20472;-63
2022/10/14 03:44:01;;;;;;;49.70;35.72;;;12.50;99.90;;;;;;5013997;28;20502;-63
2022/10/14 03:46:27;;;;;;;49.50;34.05;;;12.50;99.90;;;;;;5017480;28;20033;-63
2022/10/14 03:48:53;;;;;;;52.65;35.15;;;12.50;99.90;;;;;;5015497;28;20105;-62
2022/10/14 03:51:18;;;;;;;52.35;34.20;;;12.60;99.90;;;;;;5015428;28;20429;-62
2022/10/14 03:53:44;;;;;;;48.05;33.15;;;12.60;99.90;;;;;;5012774;28;20020;-63
2022/10/14 03:56:09;;;;;;;54.85;35.13;;;12.60;99.90;;;;;;5013579;28;20030;-62
2022/10/14 03:58:35;;;;;;;48.75;34.40;;;12.60;99.90;;;;;;5013510;28;20075;-62
2022/10/14 04:01:00;;;;;;;45.83;32.90;;;12.60;99.90;;;;;;5012740;28;20379;-63
2022/10/14 04:03:26;;;;;;;50.33;34.97;;;12.60;99.90;;;;;;5010763;28;20508;-62
2022/10/14 04:05:51;;;;;;;48.97;33.35;;;12.70;99.90;;;;;;5013898;28;20026;-62
2022/10/14 04:08:17;;;;;;;45.22;31.92;;;12.60;99.90;;;;;;5015558;28;20163;-62
2022/10/14 04:10:43;;;;;;;48.63;35.42;;;12.70;99.90;;;;;;5015128;28;20061;-62
2022/10/14 04:13:08;;;;;;;46.42;33.53;;;12.70;99.90;;;;;;5015716;28;20111;-62
2022/10/14 04:15:35;;;;;;;47.45;33.58;;;12.70;99.90;;;;;;5012559;28;20045;-63
2022/10/14 04:18:01;;;;;;;41.72;31.10;;;12.70;99.90;;;;;;5033689;28;20378;-63
2022/10/14 04:20:26;;;;;;;42.42;32.63;;;12.70;99.90;;;;;;5012927;28;20493;-63
2022/10/14 04:22:52;;;;;;;42.47;32.63;;;12.70;99.90;;;;;;5026862;28;20021;-62
2022/10/14 04:25:17;;;;;;;45.15;32.30;;;12.70;99.90;;;;;;5011022;28;20037;-62
2022/10/14 04:27:43;;;;;;;45.03;33.50;;;12.70;99.90;;;;;;5011838;28;20026;-62
2022/10/14 04:30:09;;;;;;;40.58;32.78;;;12.70;99.90;;;;;;5024456;28;20030;-63
2022/10/14 04:32:35;;;;;;;39.75;30.95;;;12.70;99.90;;;;;;5024044;28;20028;-62
2022/10/14 04:35:01;;;;;;;42.97;31.20;;;12.70;99.90;;;;;;5011639;28;20026;-62
2022/10/14 04:37:27;;;;;;;41.88;31.83;;;12.70;99.90;;;;;;5015174;28;20040;-62
2022/10/14 04:39:53;;;;;;;41.60;31.30;;;12.80;99.90;;;;;;5012762;28;20017;-62
2022/10/14 04:42:19;;;;;;;39.95;29.80;;;12.80;99.90;;;;;;5014403;28;20045;-63
2022/10/14 04:44:44;;;;;;;38.38;30.38;;;12.80;99.90;;;;;;5012445;28;20025;-62
2022/10/14 04:47:10;;;;;;;36.42;29.05;;;12.80;99.90;;;;;;5012396;28;20470;-62
2022/10/14 04:49:35;;;;;;;39.75;30.42;;;12.80;99.90;;;;;;5014978;28;20406;-63
2022/10/14 04:52:01;;;;;;;36.33;29.25;;;12.80;99.90;;;;;;5019506;28;20030;-63
2022/10/14 04:54:26;;;;;;;36.47;29.30;;;12.80;99.90;;;;;;5011250;28;20113;-63
2022/10/14 04:56:52;;;;;;;37.65;29.08;;;12.80;99.90;;;;;;5010958;28;20079;-63
2022/10/14 04:59:18;;;;;;;35.85;28.52;;;12.80;99.90;;;;;;5014135;28;20548;-63
2022/10/14 05:01:43;;;;;;;32.75;26.85;;;12.80;99.90;;;;;;5011077;28;20033;-63
2022/10/14 05:04:09;;;;;;;37.88;28.48;;;12.80;99.90;;;;;;5012694;28;20022;-62
2022/10/14 05:06:36;;;;;;;33.70;26.92;;;12.80;99.90;;;;;;5014294;28;20032;-63
2022/10/14 05:09:02;;;;;;;33.92;27.10;;;12.90;99.90;;;;;;5023927;28;20029;-63
2022/10/14 05:11:27;;;;;;;35.20;28.60;;;12.90;99.90;;;;;;5010684;28;20026;-62
2022/10/14 05:13:53;;;;;;;34.78;27.27;;;12.90;99.90;;;;;;5010490;28;20060;-62
2022/10/14 05:16:18;;;;;;;33.53;27.17;;;12.90;99.90;;;;;;5016534;28;20053;-63
2022/10/14 05:18:44;;;;;;;35.38;27.85;;;12.90;99.90;;;;;;5027787;28;20389;-63
2022/10/14 05:21:10;;;;;;;32.70;25.50;;;12.90;99.90;;;;;;5032054;28;20026;-62
2022/10/14 05:23:35;;;;;;;33.20;26.67;;;12.90;99.90;;;;;;5030039;28;20040;-62
2022/10/14 05:26:01;;;;;;;34.00;27.00;;;12.90;99.90;;;;;;5025450;28;20021;-63
2022/10/14 05:28:26;;;;;;;32.17;25.98;;;12.90;99.90;;;;;;5025527;28;20025;-62
2022/10/14 05:30:52;;;;;;;31.45;25.13;;;12.90;99.90;;;;;;5032083;28;20397;-62
2022/10/14 05:33:17;;;;;;;33.00;26.85;;;12.90;99.90;;;;;;5031862;28;20033;-62
2022/10/14 05:35:43;;;;;;;34.30;27.50;;;12.90;99.90;;;;;;5031966;28;20036;-62
2022/10/14 05:38:08;;;;;;;34.17;26.85;;;12.90;99.90;;;;;;5017158;28;20049;-62
2022/10/14 05:40:34;;;;;;;30.58;25.40;;;13.00;99.90;;;;;;5030357;28;20367;-62
2022/10/14 05:42:59;;;;;;;33.97;27.23;;;12.90;99.90;;;;;;5017693;28;20425;-62
2022/10/14 05:45:25;;;;;;;33.83;26.58;;;12.90;99.90;;;;;;5026357;28;20051;-62
2022/10/14 05:47:52;;;;;;;34.60;26.65;;;12.90;99.90;;;;;;5030300;28;20100;-62
2022/10/14 05:50:17;;;;;;;32.53;27.58;;;12.90;99.90;;;;;;5018318;28;20033;-62
2022/10/14 05:52:43;;;;;;;34.88;27.35;;;13.00;99.90;;;;;;5024465;28;20425;-62
2022/10/14 05:55:08;;;;;;;32.65;25.95;;;13.00;99.90;;;;;;5030492;28;20031;-62
2022/10/14 05:57:34;;;;;;;33.60;27.00;;;13.00;99.90;;;;;;5032658;28;20481;-63
2022/10/14 06:00:00;;;;;;;32.13;26.52;;;13.00;99.90;;;;;;5023072;28;20466;-62
2022/10/14 06:02:26;;;;;;;36.90;28.90;;;13.00;99.90;;;;;;5035445;28;20030;-62
2022/10/14 06:04:51;;;;;;;36.25;27.42;;;13.00;99.90;;;;;;5033317;28;20052;-62
2022/10/14 06:07:17;;;;;;;35.42;28.23;;;13.00;99.90;;;;;;5035268;28;20025;-62
2022/10/14 06:09:43;;;;;;;36.38;29.02;;;13.00;99.90;;;;;;5034372;28;20021;-62
2022/10/14 06:12:09;;;;;;;34.35;29.40;;;13.00;99.90;;;;;;5035057;28;20059;-62
2022/10/14 06:14:37;;;;;;;33.83;27.48;;;13.00;99.90;;;;;;5033041;28;20029;-62
2022/10/14 06:17:03;;;;;;;36.60;28.88;;;13.00;99.90;;;;;;5033885;28;20432;-62
2022/10/14 06:19:29;;;;;;;36.08;28.42;;;13.00;99.90;;;;;;5033401;28;20025;-62
2022/10/14 06:21:55;;;;;;;37.00;27.35;;;13.10;99.90;;;;;;5034181;28;20385;-62
2022/10/14 06:24:20;;;;;;;34.63;27.75;;;13.10;99.90;;;;;;5033729;28;20473;-62
2022/10/14 06:26:47;;;;;;;32.38;27.05;;;13.10;99.90;;;;;;5022485;28;20045;-62
2022/10/14 06:29:13;;;;;;;34.13;26.88;;;13.10;99.90;;;;;;5034168;28;20474;-62
2022/10/14 06:31:38;;;;;;;33.97;26.65;;;13.10;99.90;;;;;;5034599;28;20033;-62
2022/10/14 06:34:05;;;;;;;33.30;28.05;;;13.20;99.90;;;;;;5034061;28;20025;-62
2022/10/14 06:36:31;;;;;;;34.42;27.35;;;13.20;99.90;;;;;;5033797;28;20484;-62
2022/10/14 06:38:56;;;;;;;36.03;30.02;;;13.20;99.90;;;;;;5027911;28;20030;-62
2022/10/14 06:41:22;;;;;;;37.80;29.67;;;13.20;99.90;;;;;;5026382;28;20582;-62
2022/10/14 06:43:48;;;;;;;36.58;28.30;;;13.20;99.90;;;;;;5033430;28;20033;-62
2022/10/14 06:46:13;;;;;;;35.70;27.98;;;13.20;99.90;;;;;;5034490;28;20025;-62
2022/10/14 06:48:39;;;;;;;36.63;27.90;;;13.20;99.90;;;;;;5034236;28;20108;-62
2022/10/14 06:51:05;;;;;;;33.70;27.27;;;13.20;99.90;;;;;;5032486;28;20028;-62
2022/10/14 06:53:30;;;;;;;36.35;26.90;;;13.20;99.90;;;;;;5032453;28;20021;-62
2022/10/14 06:56:01;;;;;;;33.60;27.95;;;13.20;99.90;;;;;;5031532;28;20030;-62
2022/10/14 06:58:28;;;;;;;37.83;28.98;;;13.30;99.90;;;;;;5029545;28;20041;-62
2022/10/14 07:00:54;;;;;;;33.60;26.25;;;13.30;99.90;;;;;;5025792;28;20440;-62
2022/10/14 07:03:20;;;;;;;32.05;26.25;;;13.30;99.90;;;;;;5032626;28;20075;-62
2022/10/14 07:05:45;;;;;;;33.50;26.33;;;13.30;99.90;;;;;;5032391;28;20034;-62
2022/10/14 07:08:11;;;;;;;29.23;24.13;;;13.30;99.90;;;;;;5033591;28;20104;-62
2022/10/14 07:10:36;;;;;;;29.70;24.02;;;13.40;99.90;;;;;;5032646;28;20094;-62
2022/10/14 07:13:02;;;;;;;31.63;26.50;;;13.30;99.90;;;;;;5033575;28;20393;-62
2022/10/14 07:15:27;;;;;;;32.10;24.23;;;13.40;99.90;;;;;;5033974;28;20057;-62
2022/10/14 07:17:53;;;;;;;31.13;25.27;;;13.40;99.90;;;;;;5032142;28;20017;-62
2022/10/14 07:20:19;;;;;;;30.30;24.75;;;13.40;99.90;;;;;;5033597;28;20028;-62
2022/10/14 07:22:44;;;;;;;30.45;24.92;;;13.40;99.90;;;;;;5033242;28;20056;-62
2022/10/14 07:25:10;;;;;;;28.20;24.02;;;13.40;99.90;;;;;;5031891;28;20025;-62
2022/10/14 07:27:36;;;;;;;28.45;24.60;;;13.50;99.90;;;;;;5042333;28;20022;-62
2022/10/14 07:30:02;;;;;;;30.38;24.73;;;13.50;99.90;;;;;;5010032;28;20072;-61
2022/10/14 07:32:27;;;;;;;29.50;24.52;;;13.50;99.90;;;;;;5016001;28;20385;-62
2022/10/14 07:34:53;;;;;;;26.60;23.75;;;13.50;99.90;;;;;;5024241;28;20017;-62
2022/10/14 07:37:18;;;;;;;26.63;23.25;;;13.50;99.90;;;;;;5033101;28;20047;-62
2022/10/14 07:39:44;;;;;;;28.42;24.30;;;13.60;99.90;;;;;;5032843;28;20032;-62
2022/10/14 07:42:10;;;;;;;27.33;23.27;;;13.60;99.90;;;;;;5032710;28;20049;-62
2022/10/14 07:44:38;;;;;;;27.13;24.23;;;13.60;99.90;;;;;;5032850;28;20417;-62
2022/10/14 07:47:04;;;;;;;24.75;22.13;;;13.60;99.90;;;;;;5032226;28;20026;-62
2022/10/14 07:49:30;;;;;;;24.80;21.95;;;13.60;99.90;;;;;;5030618;28;20113;-62
2022/10/14 07:51:56;;;;;;;23.77;21.23;;;13.70;99.90;;;;;;5032665;28;20112;-62
2022/10/14 07:54:24;;;;;;;25.58;22.60;;;13.70;99.90;;;;;;5030383;28;20026;-62
2022/10/14 07:56:50;;;;;;;24.80;22.10;;;13.70;99.90;;;;;;5033096;28;20033;-62
2022/10/14 07:59:18;;;;;;;25.40;22.70;;;13.70;99.90;;;;;;5028868;28;20273;-62
2022/10/14 08:01:48;;;;;;;25.40;22.70;;;13.80;99.90;;;;;;5032875;28;20026;-62
2022/10/14 08:04:14;;;;;;;24.15;21.67;;;13.80;99.90;;;;;;5031613;28;20029;-62
2022/10/14 08:06:39;;;;;;;26.00;22.58;;;13.80;99.90;;;;;;5031546;28;20027;-62
2022/10/14 08:09:07;;;;;;;24.30;21.50;;;13.80;99.90;;;;;;5031531;28;20029;-62
2022/10/14 08:11:32;;;;;;;25.38;21.10;;;13.80;99.90;;;;;;5032073;28;20377;-62
2022/10/14 08:13:59;;;;;;;24.80;21.35;;;13.80;99.90;;;;;;5032349;28;20037;-62
2022/10/14 08:16:27;;;;;;;25.75;21.92;;;13.80;99.90;;;;;;5031621;28;20030;-62
2022/10/14 08:18:55;;;;;;;24.30;21.75;;;13.90;99.90;;;;;;5032012;28;20026;-62
2022/10/14 08:21:21;;;;;;;23.02;20.45;;;13.90;99.90;;;;;;5031153;28;20010;-62
2022/10/14 08:23:47;;;;;;;22.58;20.23;;;13.90;99.90;;;;;;5031819;28;20481;-62
2022/10/14 08:26:30;;;;;;;23.50;20.98;;;13.90;99.90;;;;;;5031043;28;20359;-62
2022/10/14 08:28:58;;;;;;;22.70;20.30;;;13.90;99.90;;;;;;5032104;28;20052;-62
2022/10/14 08:31:24;;;;;;;22.88;20.60;;;13.90;99.90;;;;;;5031930;28;20021;-62
2022/10/14 08:33:49;;;;;;;22.23;19.92;;;13.90;99.90;;;;;;5032226;28;20428;-62
2022/10/14 08:36:15;;;;;;;22.23;19.92;;;13.90;99.90;;;;;;5031134;28;20025;-62
2022/10/14 08:38:41;;;;;;;22.65;20.10;;;14.00;99.90;;;;;;5031942;28;20026;-62
2022/10/14 08:41:15;;;;;;;21.70;19.50;;;14.00;99.90;;;;;;5032319;28;20047;-61
2022/10/14 08:44:09;;;;;;;20.45;18.25;;;14.00;99.90;;;;;;5031729;28;20024;-62
2022/10/14 08:46:42;;;;;;;21.35;19.23;;;14.10;99.90;;;;;;5031244;28;20025;-62
2022/10/14 08:49:12;;;;;;;21.67;17.98;;;14.10;99.90;;;;;;5032463;28;20116;-62
2022/10/14 08:51:42;;;;;;;19.67;17.67;;;14.10;99.90;;;;;;5030581;28;20041;-62
2022/10/14 08:54:14;;;;;;;20.48;18.38;;;14.10;99.90;;;;;;5032169;28;20018;-62
2022/10/14 08:56:41;;;;;;;20.73;18.73;;;14.20;99.90;;;;;;5020787;28;20036;-62
2022/10/14 08:59:13;;;;;;;21.75;19.48;;;14.20;99.90;;;;;;5030232;28;20032;-62
2022/10/14 09:01:52;;;;;;;19.95;17.95;;;14.20;99.90;;;;;;5032234;28;20096;-62
2022/10/14 09:04:18;;;;;;;20.17;18.17;;;14.30;99.90;;;;;;5032617;28;20022;-62
2022/10/14 09:06:47;;;;;;;19.15;17.25;;;14.30;99.90;;;;;;5018692;28;20755;-62
2022/10/14 09:09:43;;;;;;;18.48;16.42;;;14.30;99.90;;;;;;5032169;28;20033;-62
2022/10/14 09:12:13;;;;;;;18.38;16.58;;;14.40;99.90;;;;;;5020449;28;20029;-62
2022/10/14 09:14:43;;;;;;;17.02;15.38;;;14.40;99.90;;;;;;5031573;28;20037;-62
2022/10/14 09:17:18;;;;;;;18.17;16.33;;;14.40;99.90;;;;;;5031925;28;20025;-62
2022/10/14 09:20:04;;;;;;;17.45;15.65;;;14.50;99.90;;;;;;5032005;28;20026;-62
2022/10/14 09:22:29;;;;;;;16.58;14.88;;;14.50;99.90;;;;;;5031214;28;20076;-62
2022/10/14 09:24:56;;;;;;;17.25;15.43;;;14.60;99.90;;;;;;5030866;28;20025;-62
2022/10/14 09:27:22;;;;;;;16.13;14.57;;;14.60;99.90;;;;;;5018828;28;20017;-62
2022/10/14 09:29:57;;;;;;;16.15;14.50;;;14.70;99.90;;;;;;5030907;28;20393;-62
2022/10/14 09:32:40;;;;;;;14.80;13.40;;;14.70;99.90;;;;;;5032504;28;20103;-62
2022/10/14 09:35:28;;;;;;;15.13;13.70;;;14.80;99.90;;;;;;5033405;28;20377;-62
2022/10/14 09:37:54;;;;;;;14.32;13.02;;;14.80;99.90;;;;;;5016924;28;20061;-62
2022/10/14 09:40:25;;;;;;;14.75;13.27;;;14.80;99.90;;;;;;5028806;28;20045;-62
2022/10/14 09:43:09;;;;;;;12.48;11.30;;;14.90;99.90;;;;;;5016563;28;20042;-62
2022/10/14 09:45:49;;;;;;;14.48;13.05;;;14.90;99.90;;;;;;5029337;28;20060;-62
2022/10/14 09:48:36;;;;;;;13.60;11.55;;;14.90;99.90;;;;;;5033647;28;20029;-62
2022/10/14 09:51:09;;;;;;;13.25;12.02;;;15.00;99.90;;;;;;5046067;28;20480;-62
2022/10/14 09:53:44;;;;;;;13.32;12.05;;;14.90;99.90;;;;;;5028745;28;20405;-62
2022/10/14 09:56:10;;;;;;;12.98;11.77;;;15.00;99.90;;;;;;5047171;28;20033;-62
2022/10/14 09:58:52;;;;;;;13.25;10.98;;;15.00;99.90;;;;;;5052909;28;20021;-62
2022/10/14 10:01:21;;;;;;;12.35;11.05;;;15.10;99.90;;;;;;5052967;28;20045;-62
2022/10/14 10:03:48;;;;;;;11.63;10.35;;;15.10;99.90;;;;;;5040756;28;20025;-62
2022/10/14 10:06:21;;;;;;;11.98;10.88;;;15.10;99.90;;;;;;5036409;28;20076;-62
2022/10/14 10:08:53;;;;;;;12.98;11.57;;;15.20;99.90;;;;;;5033509;28;20036;-62
2022/10/14 10:11:32;;;;;;;11.80;10.60;;;15.20;99.90;;;;;;5034714;28;20029;-62
2022/10/14 10:13:58;;;;;;;11.85;10.65;;;15.20;99.90;;;;;;5036042;28;20029;-62
2022/10/14 10:16:26;;;;;;;10.82;9.82;;;15.20;99.90;;;;;;5021388;28;20942;-62
2022/10/14 10:18:54;;;;;;;11.90;10.70;;;15.20;99.90;;;;;;5047207;28;20380;-62
2022/10/14 10:21:25;;;;;;;10.77;9.73;;;15.30;99.90;;;;;;5029614;28;20018;-62
2022/10/14 10:23:54;;;;;;;10.77;9.70;;;15.30;99.90;;;;;;5034507;28;20022;-63
2022/10/14 10:26:32;;;;;;;10.55;9.52;;;15.40;99.90;;;;;;5027637;28;20422;-62
2022/10/14 10:29:04;;;;;;;10.73;9.63;;;15.40;99.90;;;;;;5026741;28;20031;-63
2022/10/14 10:31:47;;;;;;;10.10;9.05;;;15.50;99.90;;;;;;5044716;28;20060;-62
2022/10/14 10:34:36;;;;;;;10.48;9.38;;;15.40;99.90;;;;;;5038912;28;20029;-62
2022/10/14 10:37:15;;;;;;;11.35;8.93;;;15.50;99.90;;;;;;5033979;28;20420;-62
2022/10/14 10:39:50;;;;;;;11.50;10.10;;;15.50;99.90;;;;;;5024605;28;20034;-63
2022/10/14 10:42:23;;;;;;;12.13;9.27;;;15.50;99.90;;;;;;5040268;28;20091;-62
2022/10/14 10:45:14;;;;;;;10.10;9.10;;;15.50;99.90;;;;;;5030426;28;20017;-62
2022/10/14 10:48:02;;;;;;;9.50;8.50;;;15.60;99.90;;;;;;5035175;28;20032;-62
2022/10/14 10:50:37;;;;;;;9.82;8.32;;;15.60;99.90;;;;;;5015595;28;20030;-63
2022/10/14 10:53:22;;;;;;;8.80;7.88;;;15.60;99.90;;;;;;5017390;28;20018;-63
2022/10/14 10:56:03;;;;;;;8.85;7.15;;;15.60;99.90;;;;;;5014489;28;20018;-62
2022/10/14 10:58:41;;;;;;;8.32;7.47;;;15.70;99.90;;;;;;5029846;28;20418;-63
2022/10/14 11:01:24;;;;;;;7.75;6.95;;;15.60;99.90;;;;;;5027477;28;20034;-62
2022/10/14 11:04:16;;;;;;;10.27;7.40;;;15.70;99.90;;;;;;5031392;28;20014;-62
2022/10/14 11:13:16;;;;;;;7.28;6.60;;;15.70;99.90;;;;;;5032195;28;20067;-63
2022/10/14 11:15:57;;;;;;;8.00;6.50;;;15.70;99.90;;;;;;5030359;28;20021;-62
2022/10/14 11:18:50;;;;;;;7.20;6.50;;;15.70;99.90;;;;;;5021775;28;20028;-62
2022/10/14 11:21:33;;;;;;;7.68;6.95;;;15.70;99.90;;;;;;5029789;28;20033;-62
2022/10/14 11:24:33;;;;;;;9.32;6.95;;;15.70;99.90;;;;;;5031720;28;20088;-62
2022/10/14 11:27:26;;;;;;;7.05;5.75;;;15.70;99.90;;;;;;5028270;28;20035;-62
2022/10/14 11:30:12;;;;;;;6.75;6.05;;;15.70;99.90;;;;;;5025226;28;20059;-63
2022/10/14 11:32:44;;;;;;;6.00;5.30;;;15.70;99.90;;;;;;5030122;28;20043;-62
2022/10/14 11:35:49;;;;;;;6.60;6.00;;;15.60;99.90;;;;;;5033473;28;20021;-62
2022/10/14 11:38:32;;;;;;;6.40;5.80;;;15.70;99.90;;;;;;5028140;28;20029;-62
2022/10/14 11:41:05;;;;;;;5.57;5.07;;;15.60;99.90;;;;;;5033223;28;20390;-62
2022/10/14 11:43:42;;;;;;;5.45;4.93;;;15.60;99.90;;;;;;5032419;28;20051;-62
2022/10/14 11:46:11;;;;;;;5.82;5.22;;;15.60;99.90;;;;;;5026549;28;20018;-62
2022/10/14 11:49:09;;;;;;;4.97;4.50;;;15.60;99.90;;;;;;5025949;28;20562;-62
2022/10/14 11:51:56;;;;;;;5.47;4.75;;;15.60;99.90;;;;;;5032684;28;20030;-62
2022/10/14 11:54:38;;;;;;;5.65;4.85;;;15.60;99.90;;;;;;5037387;28;20063;-62
2022/10/14 11:57:11;;;;;;;5.22;4.68;;;15.60;99.90;;;;;;5028830;28;20498;-62
2022/10/14 11:59:46;;;;;;;5.38;4.88;;;15.50;99.90;;;;;;5034161;28;20407;-62
2022/10/14 12:02:19;;;;;;;7.63;4.70;;;15.40;99.90;;;;;;5037407;28;20023;-62
2022/10/14 12:04:52;;;;;;;5.85;5.25;;;15.50;99.90;;;;;;5043491;28;20460;-62
2022/10/14 12:07:32;;;;;;;5.45;4.95;;;15.50;99.90;;;;;;5037116;28;20091;-62
2022/10/14 12:10:00;;;;;;;;;;;15.40;99.90;;;;;;5036825;28;20044;-62
2022/10/14 12:12:27;;;;;;;5.05;4.57;;;15.40;99.90;;;;;;5045841;28;19908;-62
2022/10/14 12:15:12;;;;;;;5.28;4.78;;;15.40;99.90;;;;;;5036368;28;20025;-62
2022/10/14 12:17:52;;;;;;;5.32;4.70;;;15.50;99.90;;;;;;5032140;28;20481;-62
2022/10/14 12:20:37;;;;;;;5.15;4.55;;;15.60;99.90;;;;;;5030879;28;20044;-62
2022/10/14 12:23:06;;;;;;;5.20;4.70;;;15.70;99.90;;;;;;5036463;28;20020;-62
2022/10/14 12:25:40;;;;;;;4.78;4.32;;;15.70;99.90;;;;;;5032507;28;20420;-62
2022/10/14 12:28:08;;;;;;;4.63;3.85;;;15.60;99.90;;;;;;5047260;28;20446;-62
2022/10/14 12:30:38;;;;;;;5.28;4.18;;;15.60;99.90;;;;;;5039088;28;20029;-62
2022/10/14 12:33:09;;;;;;;4.13;3.78;;;15.60;99.90;;;;;;5032561;28;20103;-62
2022/10/14 12:35:44;;;;;;;5.22;3.97;;;15.60;99.90;;;;;;5044371;28;20049;-62
2022/10/14 12:38:10;;;;;;;4.13;3.72;;;15.60;99.90;;;;;;5042397;28;20500;-62
2022/10/14 12:40:36;;;;;;;5.43;4.00;;;15.60;99.90;;;;;;5033944;28;20040;-62
2022/10/14 12:43:26;;;;;;;3.90;3.50;;;15.60;99.90;;;;;;5031578;28;20707;-62
2022/10/14 12:46:09;;;;;;;3.80;3.20;;;15.70;99.90;;;;;;5026461;28;20024;-62
2022/10/14 12:48:37;;;;;;;3.45;3.10;;;15.60;99.90;;;;;;4909866;28;20550;-62
2022/10/14 12:51:20;;;;;;;3.88;3.58;;;15.70;99.90;;;;;;4851898;28;20098;-62
2022/10/14 12:53:53;;;;;;;4.28;3.38;;;15.70;99.90;;;;;;5016763;28;20028;-62